sensor_id;sensor_type;location;lat;lon;timestamp;pressure;altitude;pressure_sealevel;temperature;humidity
74334;BME280;62753;40.394;-80.022;2023-05-09T00:01:05;96990.78;;;24.51;31.04
74334;BME280;62753;40.394;-80.022;2023-05-09T00:03:24;96994.18;;;25.01;30.96
74334;BME280;62753;40.394;-80.022;2023-05-09T00:05:49;96997.78;;;25.24;30.82
74334;BME280;62753;40.394;-80.022;2023-05-09T00:08:14;96999.56;;;25.25;30.34
74334;BME280;62753;40.394;-80.022;2023-05-09T00:10:41;97002.52;;;25.29;30.03
74334;BME280;62753;40.394;-80.022;2023-05-09T00:13:05;97004.29;;;25.35;29.07
74334;BME280;62753;40.394;-80.022;2023-05-09T00:15:30;97011.09;;;25.50;29.76
74334;BME280;62753;40.394;-80.022;2023-05-09T00:17:56;97011.52;;;25.39;28.48
74334;BME280;62753;40.394;-80.022;2023-05-09T00:20:21;97009.91;;;25.41;29.46
74334;BME280;62753;40.394;-80.022;2023-05-09T00:22:46;97012.41;;;25.72;28.39
74334;BME280;62753;40.394;-80.022;2023-05-09T00:25:11;97010.92;;;25.20;28.56
74334;BME280;62753;40.394;-80.022;2023-05-09T00:27:37;97010.38;;;25.68;28.23
74334;BME280;62753;40.394;-80.022;2023-05-09T00:30:03;97008.44;;;26.06;28.91
74334;BME280;62753;40.394;-80.022;2023-05-09T00:32:27;97006.92;;;25.57;28.72
74334;BME280;62753;40.394;-80.022;2023-05-09T00:34:53;97007.21;;;25.72;28.75
74334;BME280;62753;40.394;-80.022;2023-05-09T00:37:18;97005.79;;;25.76;29.17
74334;BME280;62753;40.394;-80.022;2023-05-09T00:39:43;97005.03;;;25.78;28.86
74334;BME280;62753;40.394;-80.022;2023-05-09T00:42:08;97000.69;;;25.43;29.23
74334;BME280;62753;40.394;-80.022;2023-05-09T00:44:33;96998.54;;;25.32;29.28
74334;BME280;62753;40.394;-80.022;2023-05-09T00:46:59;96998.04;;;25.58;29.15
74334;BME280;62753;40.394;-80.022;2023-05-09T00:49:24;96993.86;;;25.11;29.34
74334;BME280;62753;40.394;-80.022;2023-05-09T00:51:49;96995.57;;;24.98;30.29
74334;BME280;62753;40.394;-80.022;2023-05-09T00:54:14;96996.71;;;25.27;29.97
74334;BME280;62753;40.394;-80.022;2023-05-09T00:56:40;96999.76;;;24.96;29.90
74334;BME280;62753;40.394;-80.022;2023-05-09T00:59:05;96990.22;;;24.99;30.18
74334;BME280;62753;40.394;-80.022;2023-05-09T01:01:30;96992.77;;;25.36;30.03
74334;BME280;62753;40.394;-80.022;2023-05-09T01:03:55;96993.00;;;25.27;29.96
74334;BME280;62753;40.394;-80.022;2023-05-09T01:06:24;96994.65;;;25.58;29.55
74334;BME280;62753;40.394;-80.022;2023-05-09T01:08:52;96994.32;;;25.29;29.17
74334;BME280;62753;40.394;-80.022;2023-05-09T01:11:14;96991.87;;;25.53;29.39
74334;BME280;62753;40.394;-80.022;2023-05-09T01:13:45;96999.62;;;25.39;29.82
74334;BME280;62753;40.394;-80.022;2023-05-09T01:16:07;96999.92;;;25.80;29.39
74334;BME280;62753;40.394;-80.022;2023-05-09T01:18:31;96998.26;;;25.56;29.22
74334;BME280;62753;40.394;-80.022;2023-05-09T01:20:59;97003.83;;;25.81;28.60
74334;BME280;62753;40.394;-80.022;2023-05-09T01:25:53;97005.71;;;25.46;28.88
74334;BME280;62753;40.394;-80.022;2023-05-09T01:28:13;97005.46;;;25.72;28.70
74334;BME280;62753;40.394;-80.022;2023-05-09T01:30:35;97003.02;;;25.46;29.32
74334;BME280;62753;40.394;-80.022;2023-05-09T01:33:00;97004.64;;;25.65;28.98
74334;BME280;62753;40.394;-80.022;2023-05-09T01:35:25;97007.50;;;25.14;29.16
74334;BME280;62753;40.394;-80.022;2023-05-09T01:37:50;97008.93;;;25.65;29.65
74334;BME280;62753;40.394;-80.022;2023-05-09T01:40:16;97003.14;;;25.08;29.72
74334;BME280;62753;40.394;-80.022;2023-05-09T01:42:42;97006.19;;;25.69;29.58
74334;BME280;62753;40.394;-80.022;2023-05-09T01:45:06;97003.65;;;25.29;29.97
74334;BME280;62753;40.394;-80.022;2023-05-09T01:47:30;97000.91;;;25.00;29.68
74334;BME280;62753;40.394;-80.022;2023-05-09T01:49:56;96999.58;;;25.28;29.74
74334;BME280;62753;40.394;-80.022;2023-05-09T01:52:21;96999.88;;;25.48;29.17
74334;BME280;62753;40.394;-80.022;2023-05-09T01:54:46;97001.56;;;25.02;30.55
74334;BME280;62753;40.394;-80.022;2023-05-09T01:57:11;96998.28;;;25.23;29.82
74334;BME280;62753;40.394;-80.022;2023-05-09T01:59:39;97000.42;;;25.19;29.72
74334;BME280;62753;40.394;-80.022;2023-05-09T02:02:03;97003.41;;;25.41;30.53
74334;BME280;62753;40.394;-80.022;2023-05-09T02:04:28;97006.55;;;25.46;29.99
74334;BME280;62753;40.394;-80.022;2023-05-09T02:06:53;97017.20;;;25.05;29.96
74334;BME280;62753;40.394;-80.022;2023-05-09T02:09:19;97022.41;;;24.84;30.30
74334;BME280;62753;40.394;-80.022;2023-05-09T02:11:44;97018.80;;;24.81;30.03
74334;BME280;62753;40.394;-80.022;2023-05-09T02:14:09;97017.21;;;25.31;30.34
74334;BME280;62753;40.394;-80.022;2023-05-09T02:16:35;97020.72;;;25.34;30.26
74334;BME280;62753;40.394;-80.022;2023-05-09T02:19:00;97020.18;;;25.42;29.77
74334;BME280;62753;40.394;-80.022;2023-05-09T02:21:26;97025.26;;;25.10;29.79
74334;BME280;62753;40.394;-80.022;2023-05-09T02:23:51;97026.07;;;25.30;29.67
74334;BME280;62753;40.394;-80.022;2023-05-09T02:26:17;97024.69;;;25.17;29.42
74334;BME280;62753;40.394;-80.022;2023-05-09T02:28:43;97023.07;;;25.00;30.00
74334;BME280;62753;40.394;-80.022;2023-05-09T02:31:07;97020.12;;;25.25;29.17
74334;BME280;62753;40.394;-80.022;2023-05-09T02:33:34;97015.99;;;24.99;29.34
74334;BME280;62753;40.394;-80.022;2023-05-09T02:35:58;97016.71;;;25.43;29.33
74334;BME280;62753;40.394;-80.022;2023-05-09T02:38:23;97014.89;;;25.59;28.88
74334;BME280;62753;40.394;-80.022;2023-05-09T02:40:49;97015.11;;;24.93;29.94
74334;BME280;62753;40.394;-80.022;2023-05-09T02:43:13;97016.07;;;25.06;29.47
74334;BME280;62753;40.394;-80.022;2023-05-09T02:45:38;97019.55;;;25.04;29.99
74334;BME280;62753;40.394;-80.022;2023-05-09T02:48:05;97016.82;;;25.35;29.58
74334;BME280;62753;40.394;-80.022;2023-05-09T02:50:29;97012.55;;;25.04;29.88
74334;BME280;62753;40.394;-80.022;2023-05-09T02:52:54;97011.17;;;24.97;29.29
74334;BME280;62753;40.394;-80.022;2023-05-09T02:55:24;97016.48;;;25.27;28.97
74334;BME280;62753;40.394;-80.022;2023-05-09T02:57:45;97018.49;;;25.34;29.51
74334;BME280;62753;40.394;-80.022;2023-05-09T03:00:11;97019.87;;;25.20;29.13
74334;BME280;62753;40.394;-80.022;2023-05-09T03:02:35;97019.14;;;26.14;28.89
74334;BME280;62753;40.394;-80.022;2023-05-09T03:05:00;97019.13;;;24.93;28.36
74334;BME280;62753;40.394;-80.022;2023-05-09T03:07:25;97016.21;;;25.35;28.64
74334;BME280;62753;40.394;-80.022;2023-05-09T03:09:50;97017.58;;;25.62;28.47
74334;BME280;62753;40.394;-80.022;2023-05-09T03:12:16;97018.91;;;25.37;28.78
74334;BME280;62753;40.394;-80.022;2023-05-09T03:14:41;97016.76;;;24.96;29.08
74334;BME280;62753;40.394;-80.022;2023-05-09T03:17:06;97019.92;;;24.81;30.10
74334;BME280;62753;40.394;-80.022;2023-05-09T03:19:31;97020.51;;;24.66;30.36
74334;BME280;62753;40.394;-80.022;2023-05-09T03:21:56;97023.64;;;24.94;30.04
74334;BME280;62753;40.394;-80.022;2023-05-09T03:24:25;97023.27;;;25.23;29.29
74334;BME280;62753;40.394;-80.022;2023-05-09T03:26:48;97022.17;;;25.24;30.14
74334;BME280;62753;40.394;-80.022;2023-05-09T03:29:13;97019.77;;;24.46;30.10
74334;BME280;62753;40.394;-80.022;2023-05-09T03:31:38;97016.50;;;25.06;30.03
74334;BME280;62753;40.394;-80.022;2023-05-09T03:34:03;97009.17;;;24.89;29.40
74334;BME280;62753;40.394;-80.022;2023-05-09T03:36:29;97005.92;;;24.46;29.98
74334;BME280;62753;40.394;-80.022;2023-05-09T03:38:54;97011.22;;;24.71;29.92
74334;BME280;62753;40.394;-80.022;2023-05-09T03:41:19;97011.74;;;24.89;30.03
74334;BME280;62753;40.394;-80.022;2023-05-09T03:43:44;97016.13;;;24.98;29.34
74334;BME280;62753;40.394;-80.022;2023-05-09T03:46:09;97017.44;;;24.79;29.80
74334;BME280;62753;40.394;-80.022;2023-05-09T03:48:35;97017.28;;;24.64;29.68
74334;BME280;62753;40.394;-80.022;2023-05-09T03:51:00;97017.69;;;24.47;29.94
74334;BME280;62753;40.394;-80.022;2023-05-09T03:53:25;97018.46;;;24.51;29.91
74334;BME280;62753;40.394;-80.022;2023-05-09T03:55:50;97022.96;;;24.66;29.97
74334;BME280;62753;40.394;-80.022;2023-05-09T03:58:15;97026.93;;;24.52;29.86
74334;BME280;62753;40.394;-80.022;2023-05-09T04:00:41;97035.93;;;24.12;29.88
74334;BME280;62753;40.394;-80.022;2023-05-09T04:03:06;97031.09;;;24.51;29.32
74334;BME280;62753;40.394;-80.022;2023-05-09T04:05:32;97021.89;;;24.63;29.67
74334;BME280;62753;40.394;-80.022;2023-05-09T04:07:57;97015.18;;;24.94;29.17
74334;BME280;62753;40.394;-80.022;2023-05-09T04:10:22;97016.79;;;25.02;29.19
74334;BME280;62753;40.394;-80.022;2023-05-09T04:12:48;97018.54;;;24.97;28.63
74334;BME280;62753;40.394;-80.022;2023-05-09T04:15:13;97025.07;;;24.83;29.72
74334;BME280;62753;40.394;-80.022;2023-05-09T04:17:38;97022.24;;;24.91;28.75
74334;BME280;62753;40.394;-80.022;2023-05-09T04:20:11;97023.36;;;24.73;28.53
74334;BME280;62753;40.394;-80.022;2023-05-09T04:22:29;97019.53;;;24.46;28.81
74334;BME280;62753;40.394;-80.022;2023-05-09T04:24:54;97021.58;;;23.93;30.00
74334;BME280;62753;40.394;-80.022;2023-05-09T04:27:19;97016.70;;;24.16;29.69
74334;BME280;62753;40.394;-80.022;2023-05-09T04:29:45;97015.56;;;24.51;30.21
74334;BME280;62753;40.394;-80.022;2023-05-09T04:32:10;97018.46;;;24.27;29.33
74334;BME280;62753;40.394;-80.022;2023-05-09T04:34:35;97023.28;;;24.04;30.15
74334;BME280;62753;40.394;-80.022;2023-05-09T04:37:00;97017.32;;;24.38;30.06
74334;BME280;62753;40.394;-80.022;2023-05-09T04:39:25;97017.78;;;24.13;29.37
74334;BME280;62753;40.394;-80.022;2023-05-09T04:41:51;97014.11;;;24.51;29.70
74334;BME280;62753;40.394;-80.022;2023-05-09T04:44:16;97016.34;;;24.11;28.96
74334;BME280;62753;40.394;-80.022;2023-05-09T04:46:41;97013.72;;;24.09;30.00
74334;BME280;62753;40.394;-80.022;2023-05-09T04:49:07;97012.79;;;24.38;28.92
74334;BME280;62753;40.394;-80.022;2023-05-09T04:51:32;97019.95;;;25.09;28.85
74334;BME280;62753;40.394;-80.022;2023-05-09T04:53:57;97022.06;;;24.04;29.02
74334;BME280;62753;40.394;-80.022;2023-05-09T04:56:22;97015.57;;;23.94;28.60
74334;BME280;62753;40.394;-80.022;2023-05-09T04:58:48;97013.55;;;24.40;28.67
74334;BME280;62753;40.394;-80.022;2023-05-09T05:01:13;97015.61;;;24.37;27.99
74334;BME280;62753;40.394;-80.022;2023-05-09T05:03:38;97015.64;;;24.24;28.01
74334;BME280;62753;40.394;-80.022;2023-05-09T05:06:04;97017.71;;;24.69;27.45
74334;BME280;62753;40.394;-80.022;2023-05-09T05:08:29;97017.45;;;24.23;28.05
74334;BME280;62753;40.394;-80.022;2023-05-09T05:10:54;97013.80;;;24.06;27.90
74334;BME280;62753;40.394;-80.022;2023-05-09T05:13:19;97011.02;;;24.43;26.94
74334;BME280;62753;40.394;-80.022;2023-05-09T05:15:44;97011.74;;;24.49;27.96
74334;BME280;62753;40.394;-80.022;2023-05-09T05:18:09;97015.59;;;24.84;27.10
74334;BME280;62753;40.394;-80.022;2023-05-09T05:20:35;97011.66;;;24.67;26.89
74334;BME280;62753;40.394;-80.022;2023-05-09T05:23:00;97007.81;;;24.34;27.36
74334;BME280;62753;40.394;-80.022;2023-05-09T05:25:25;97004.69;;;24.35;26.74
74334;BME280;62753;40.394;-80.022;2023-05-09T05:27:51;97007.02;;;23.78;27.64
74334;BME280;62753;40.394;-80.022;2023-05-09T05:30:16;97005.91;;;23.99;27.13
74334;BME280;62753;40.394;-80.022;2023-05-09T05:32:41;97008.74;;;23.40;28.39
74334;BME280;62753;40.394;-80.022;2023-05-09T05:35:07;97004.27;;;23.12;28.55
74334;BME280;62753;40.394;-80.022;2023-05-09T05:37:32;96996.51;;;23.29;27.88
74334;BME280;62753;40.394;-80.022;2023-05-09T05:39:57;96989.36;;;23.24;28.16
74334;BME280;62753;40.394;-80.022;2023-05-09T05:42:22;96988.82;;;23.29;28.21
74334;BME280;62753;40.394;-80.022;2023-05-09T05:44:47;96987.64;;;23.15;28.01
74334;BME280;62753;40.394;-80.022;2023-05-09T05:47:12;96989.30;;;22.80;28.58
74334;BME280;62753;40.394;-80.022;2023-05-09T05:49:37;96990.49;;;23.00;28.37
74334;BME280;62753;40.394;-80.022;2023-05-09T05:52:03;96988.92;;;23.10;28.44
74334;BME280;62753;40.394;-80.022;2023-05-09T05:54:28;96981.35;;;23.53;27.38
74334;BME280;62753;40.394;-80.022;2023-05-09T05:56:53;96976.28;;;23.33;27.83
74334;BME280;62753;40.394;-80.022;2023-05-09T05:59:19;96971.20;;;23.74;27.39
74334;BME280;62753;40.394;-80.022;2023-05-09T06:01:44;96968.52;;;23.25;27.49
74334;BME280;62753;40.394;-80.022;2023-05-09T06:04:09;96961.82;;;23.70;27.38
74334;BME280;62753;40.394;-80.022;2023-05-09T06:06:34;96956.41;;;23.18;27.73
74334;BME280;62753;40.394;-80.022;2023-05-09T06:09:00;96956.50;;;22.71;28.03
74334;BME280;62753;40.394;-80.022;2023-05-09T06:11:25;96955.21;;;23.33;26.91
74334;BME280;62753;40.394;-80.022;2023-05-09T06:13:50;96949.04;;;22.29;28.07
74334;BME280;62753;40.394;-80.022;2023-05-09T06:16:15;96935.29;;;22.59;28.16
74334;BME280;62753;40.394;-80.022;2023-05-09T06:18:40;96933.82;;;22.37;28.52
74334;BME280;62753;40.394;-80.022;2023-05-09T06:21:06;96931.84;;;22.13;28.47
74334;BME280;62753;40.394;-80.022;2023-05-09T06:23:32;96931.72;;;22.41;28.09
74334;BME280;62753;40.394;-80.022;2023-05-09T06:25:57;96927.67;;;22.51;27.47
74334;BME280;62753;40.394;-80.022;2023-05-09T06:28:22;96931.99;;;22.94;27.13
74334;BME280;62753;40.394;-80.022;2023-05-09T06:30:47;96942.65;;;22.60;26.63
74334;BME280;62753;40.394;-80.022;2023-05-09T06:33:13;96947.19;;;23.28;26.53
74334;BME280;62753;40.394;-80.022;2023-05-09T06:35:38;96951.31;;;23.36;27.15
74334;BME280;62753;40.394;-80.022;2023-05-09T06:38:03;96943.06;;;23.10;26.30
74334;BME280;62753;40.394;-80.022;2023-05-09T06:40:28;96939.65;;;23.08;26.73
74334;BME280;62753;40.394;-80.022;2023-05-09T06:42:54;96946.84;;;22.85;27.92
74334;BME280;62753;40.394;-80.022;2023-05-09T06:45:19;96943.82;;;22.32;27.58
74334;BME280;62753;40.394;-80.022;2023-05-09T06:47:44;96937.59;;;22.66;27.10
74334;BME280;62753;40.394;-80.022;2023-05-09T06:50:10;96931.56;;;22.74;26.82
74334;BME280;62753;40.394;-80.022;2023-05-09T06:52:34;96938.30;;;23.06;26.55
74334;BME280;62753;40.394;-80.022;2023-05-09T06:55:00;96941.48;;;22.79;26.91
74334;BME280;62753;40.394;-80.022;2023-05-09T06:57:25;96941.37;;;22.77;26.51
74334;BME280;62753;40.394;-80.022;2023-05-09T06:59:50;96937.43;;;22.31;26.54
74334;BME280;62753;40.394;-80.022;2023-05-09T07:02:16;96931.84;;;22.68;26.34
74334;BME280;62753;40.394;-80.022;2023-05-09T07:04:41;96928.76;;;22.53;26.54
74334;BME280;62753;40.394;-80.022;2023-05-09T07:07:06;96924.11;;;22.01;27.15
74334;BME280;62753;40.394;-80.022;2023-05-09T07:09:32;96922.71;;;22.21;27.38
74334;BME280;62753;40.394;-80.022;2023-05-09T07:11:58;96927.55;;;22.80;26.86
74334;BME280;62753;40.394;-80.022;2023-05-09T07:14:22;96936.04;;;22.51;26.01
74334;BME280;62753;40.394;-80.022;2023-05-09T07:16:47;96931.74;;;22.79;25.78
74334;BME280;62753;40.394;-80.022;2023-05-09T07:19:13;96921.50;;;22.85;25.72
74334;BME280;62753;40.394;-80.022;2023-05-09T07:21:38;96913.29;;;23.15;25.38
74334;BME280;62753;40.394;-80.022;2023-05-09T07:24:03;96915.17;;;23.04;25.58
74334;BME280;62753;40.394;-80.022;2023-05-09T07:26:28;96924.96;;;22.25;25.93
74334;BME280;62753;40.394;-80.022;2023-05-09T07:28:54;96929.25;;;22.16;25.56
74334;BME280;62753;40.394;-80.022;2023-05-09T07:31:19;96926.74;;;22.70;25.91
74334;BME280;62753;40.394;-80.022;2023-05-09T07:33:44;96923.49;;;22.22;25.96
74334;BME280;62753;40.394;-80.022;2023-05-09T07:36:09;96929.25;;;22.62;26.04
74334;BME280;62753;40.394;-80.022;2023-05-09T07:38:35;96933.92;;;22.68;25.67
74334;BME280;62753;40.394;-80.022;2023-05-09T07:41:00;96930.74;;;22.44;25.72
74334;BME280;62753;40.394;-80.022;2023-05-09T07:43:25;96934.21;;;22.34;25.91
74334;BME280;62753;40.394;-80.022;2023-05-09T07:45:50;96935.41;;;22.57;25.20
74334;BME280;62753;40.394;-80.022;2023-05-09T07:48:16;96944.85;;;22.60;26.69
74334;BME280;62753;40.394;-80.022;2023-05-09T07:50:41;96961.84;;;22.64;25.48
74334;BME280;62753;40.394;-80.022;2023-05-09T07:53:06;96996.74;;;22.22;26.24
74334;BME280;62753;40.394;-80.022;2023-05-09T07:55:31;97021.97;;;22.16;27.01
74334;BME280;62753;40.394;-80.022;2023-05-09T07:57:57;97034.88;;;22.35;27.16
74334;BME280;62753;40.394;-80.022;2023-05-09T08:00:23;97036.82;;;22.84;26.39
74334;BME280;62753;40.394;-80.022;2023-05-09T08:02:47;97032.35;;;22.51;26.92
74334;BME280;62753;40.394;-80.022;2023-05-09T08:05:13;97027.17;;;22.14;29.13
74334;BME280;62753;40.394;-80.022;2023-05-09T08:07:38;97023.83;;;21.97;29.34
74334;BME280;62753;40.394;-80.022;2023-05-09T08:10:04;97013.60;;;21.80;30.46
74334;BME280;62753;40.394;-80.022;2023-05-09T08:12:28;97007.33;;;22.14;31.67
74334;BME280;62753;40.394;-80.022;2023-05-09T08:14:53;97013.57;;;21.58;31.40
74334;BME280;62753;40.394;-80.022;2023-05-09T08:17:19;97017.34;;;21.58;30.77
74334;BME280;62753;40.394;-80.022;2023-05-09T08:19:44;97015.32;;;20.99;33.38
74334;BME280;62753;40.394;-80.022;2023-05-09T08:22:16;97016.19;;;20.84;32.94
74334;BME280;62753;40.394;-80.022;2023-05-09T08:24:35;97013.83;;;20.79;34.59
74334;BME280;62753;40.394;-80.022;2023-05-09T08:27:00;97012.96;;;20.87;33.62
74334;BME280;62753;40.394;-80.022;2023-05-09T08:29:25;97010.22;;;21.16;33.66
74334;BME280;62753;40.394;-80.022;2023-05-09T08:31:51;97007.72;;;20.93;34.43
74334;BME280;62753;40.394;-80.022;2023-05-09T08:34:16;96998.98;;;20.69;32.59
74334;BME280;62753;40.394;-80.022;2023-05-09T08:36:41;96994.09;;;20.57;33.85
74334;BME280;62753;40.394;-80.022;2023-05-09T08:39:07;96993.13;;;20.51;34.21
74334;BME280;62753;40.394;-80.022;2023-05-09T08:41:33;96992.13;;;20.71;34.23
74334;BME280;62753;40.394;-80.022;2023-05-09T08:43:57;96988.67;;;19.95;34.84
74334;BME280;62753;40.394;-80.022;2023-05-09T08:46:26;96981.75;;;19.96;34.38
74334;BME280;62753;40.394;-80.022;2023-05-09T08:48:48;96981.32;;;20.40;34.53
74334;BME280;62753;40.394;-80.022;2023-05-09T08:51:14;96978.94;;;20.03;34.29
74334;BME280;62753;40.394;-80.022;2023-05-09T08:53:39;96981.52;;;20.21;34.49
74334;BME280;62753;40.394;-80.022;2023-05-09T08:56:04;96978.28;;;19.99;35.76
74334;BME280;62753;40.394;-80.022;2023-05-09T08:58:30;96975.87;;;19.15;35.70
74334;BME280;62753;40.394;-80.022;2023-05-09T09:00:55;96975.15;;;19.31;36.34
74334;BME280;62753;40.394;-80.022;2023-05-09T09:03:20;96970.66;;;19.18;36.40
74334;BME280;62753;40.394;-80.022;2023-05-09T09:05:46;96965.80;;;19.37;36.72
74334;BME280;62753;40.394;-80.022;2023-05-09T09:08:10;96968.21;;;18.83;37.94
74334;BME280;62753;40.394;-80.022;2023-05-09T09:10:39;96961.38;;;19.36;37.46
74334;BME280;62753;40.394;-80.022;2023-05-09T09:13:02;96962.28;;;19.44;37.70
74334;BME280;62753;40.394;-80.022;2023-05-09T09:15:29;96959.21;;;19.12;36.76
74334;BME280;62753;40.394;-80.022;2023-05-09T09:17:54;96957.76;;;19.05;36.93
74334;BME280;62753;40.394;-80.022;2023-05-09T09:20:19;96954.45;;;19.08;37.90
74334;BME280;62753;40.394;-80.022;2023-05-09T09:22:44;96957.43;;;19.14;35.90
74334;BME280;62753;40.394;-80.022;2023-05-09T09:25:09;96960.65;;;19.43;36.79
74334;BME280;62753;40.394;-80.022;2023-05-09T09:27:33;96969.31;;;19.35;36.84
74334;BME280;62753;40.394;-80.022;2023-05-09T09:30:07;96976.47;;;19.11;37.44
74334;BME280;62753;40.394;-80.022;2023-05-09T09:32:32;96982.73;;;19.31;37.53
74334;BME280;62753;40.394;-80.022;2023-05-09T09:34:50;96989.21;;;18.95;36.69
74334;BME280;62753;40.394;-80.022;2023-05-09T09:37:21;96988.50;;;19.79;36.53
74334;BME280;62753;40.394;-80.022;2023-05-09T09:39:53;96994.13;;;18.94;35.30
74334;BME280;62753;40.394;-80.022;2023-05-09T09:42:11;96993.50;;;19.27;34.62
74334;BME280;62753;40.394;-80.022;2023-05-09T09:44:31;96987.35;;;19.09;34.96
74334;BME280;62753;40.394;-80.022;2023-05-09T09:46:56;96996.52;;;18.63;36.21
74334;BME280;62753;40.394;-80.022;2023-05-09T09:49:26;97000.66;;;18.36;37.01
74334;BME280;62753;40.394;-80.022;2023-05-09T09:51:50;96999.59;;;19.16;35.06
74334;BME280;62753;40.394;-80.022;2023-05-09T09:54:13;96996.79;;;18.62;35.03
74334;BME280;62753;40.394;-80.022;2023-05-09T09:56:39;96997.06;;;18.80;35.02
74334;BME280;62753;40.394;-80.022;2023-05-09T09:59:09;97006.22;;;18.15;35.57
74334;BME280;62753;40.394;-80.022;2023-05-09T10:01:28;97011.76;;;19.16;34.18
74334;BME280;62753;40.394;-80.022;2023-05-09T10:03:53;97015.33;;;18.60;34.89
74334;BME280;62753;40.394;-80.022;2023-05-09T10:06:19;97028.32;;;18.46;36.57
74334;BME280;62753;40.394;-80.022;2023-05-09T10:08:44;97045.83;;;18.46;36.01
74334;BME280;62753;40.394;-80.022;2023-05-09T10:11:09;97052.28;;;19.17;34.83
74334;BME280;62753;40.394;-80.022;2023-05-09T10:13:35;97039.61;;;18.49;36.35
74334;BME280;62753;40.394;-80.022;2023-05-09T10:16:00;97036.68;;;18.68;36.29
74334;BME280;62753;40.394;-80.022;2023-05-09T10:18:28;97040.31;;;18.48;36.41
74334;BME280;62753;40.394;-80.022;2023-05-09T10:20:50;97042.34;;;18.25;36.49
74334;BME280;62753;40.394;-80.022;2023-05-09T10:23:17;97049.47;;;18.33;38.37
74334;BME280;62753;40.394;-80.022;2023-05-09T10:25:46;97052.92;;;17.85;38.30
74334;BME280;62753;40.394;-80.022;2023-05-09T10:28:10;97055.65;;;18.22;39.27
74334;BME280;62753;40.394;-80.022;2023-05-09T10:30:37;97055.82;;;17.64;40.13
74334;BME280;62753;40.394;-80.022;2023-05-09T10:33:01;97062.30;;;17.84;39.77
74334;BME280;62753;40.394;-80.022;2023-05-09T10:35:26;97067.19;;;18.11;40.08
74334;BME280;62753;40.394;-80.022;2023-05-09T10:37:47;97074.60;;;17.76;40.52
74334;BME280;62753;40.394;-80.022;2023-05-09T10:40:14;97083.62;;;17.83;41.05
74334;BME280;62753;40.394;-80.022;2023-05-09T10:42:38;97094.87;;;17.81;40.70
74334;BME280;62753;40.394;-80.022;2023-05-09T10:45:05;97099.48;;;18.18;41.50
74334;BME280;62753;40.394;-80.022;2023-05-09T10:47:29;97097.18;;;18.06;41.21
74334;BME280;62753;40.394;-80.022;2023-05-09T10:49:54;97099.29;;;17.76;41.99
74334;BME280;62753;40.394;-80.022;2023-05-09T10:52:21;97107.84;;;17.60;42.44
74334;BME280;62753;40.394;-80.022;2023-05-09T10:57:10;97117.16;;;18.25;42.15
74334;BME280;62753;40.394;-80.022;2023-05-09T10:59:37;97125.79;;;17.76;41.99
74334;BME280;62753;40.394;-80.022;2023-05-09T11:02:01;97128.25;;;17.87;42.38
74334;BME280;62753;40.394;-80.022;2023-05-09T11:04:26;97128.30;;;17.96;42.59
74334;BME280;62753;40.394;-80.022;2023-05-09T11:06:53;97135.67;;;17.77;43.13
74334;BME280;62753;40.394;-80.022;2023-05-09T11:09:25;97139.51;;;17.66;41.93
74334;BME280;62753;40.394;-80.022;2023-05-09T11:11:50;97138.50;;;17.44;43.20
74334;BME280;62753;40.394;-80.022;2023-05-09T11:14:08;97126.80;;;17.61;42.49
74334;BME280;62753;40.394;-80.022;2023-05-09T11:18:58;97114.77;;;17.93;41.86
74334;BME280;62753;40.394;-80.022;2023-05-09T11:21:23;97115.81;;;17.62;42.48
74334;BME280;62753;40.394;-80.022;2023-05-09T11:23:49;97111.00;;;17.10;43.40
74334;BME280;62753;40.394;-80.022;2023-05-09T11:26:14;97108.54;;;17.51;43.72
74334;BME280;62753;40.394;-80.022;2023-05-09T11:28:39;97120.40;;;17.39;43.36
74334;BME280;62753;40.394;-80.022;2023-05-09T11:31:09;97134.94;;;17.80;42.33
74334;BME280;62753;40.394;-80.022;2023-05-09T11:33:30;97138.85;;;18.39;42.56
74334;BME280;62753;40.394;-80.022;2023-05-09T11:38:21;97142.14;;;18.03;42.79
74334;BME280;62753;40.394;-80.022;2023-05-09T11:40:46;97141.92;;;17.99;42.64
74334;BME280;62753;40.394;-80.022;2023-05-09T11:43:12;97139.50;;;18.02;42.27
74334;BME280;62753;40.394;-80.022;2023-05-09T11:45:37;97146.46;;;18.45;42.26
74334;BME280;62753;40.394;-80.022;2023-05-09T11:48:07;97156.80;;;18.54;41.57
74334;BME280;62753;40.394;-80.022;2023-05-09T11:50:28;97154.41;;;18.50;40.55
74334;BME280;62753;40.394;-80.022;2023-05-09T11:52:53;97147.85;;;18.67;39.98
74334;BME280;62753;40.394;-80.022;2023-05-09T11:55:19;97143.57;;;18.08;41.78
74334;BME280;62753;40.394;-80.022;2023-05-09T11:57:44;97147.05;;;18.61;41.33
74334;BME280;62753;40.394;-80.022;2023-05-09T12:00:09;97151.33;;;18.97;40.33
74334;BME280;62753;40.394;-80.022;2023-05-09T12:02:39;97158.15;;;19.26;40.66
74334;BME280;62753;40.394;-80.022;2023-05-09T12:05:05;97159.21;;;18.96;39.77
74334;BME280;62753;40.394;-80.022;2023-05-09T12:07:25;97149.32;;;19.10;39.99
74334;BME280;62753;40.394;-80.022;2023-05-09T12:09:51;97146.54;;;19.58;38.90
74334;BME280;62753;40.394;-80.022;2023-05-09T12:12:15;97148.73;;;18.97;39.25
74334;BME280;62753;40.394;-80.022;2023-05-09T12:14:40;97144.98;;;19.04;39.68
74334;BME280;62753;40.394;-80.022;2023-05-09T12:17:06;97147.40;;;19.03;39.13
74334;BME280;62753;40.394;-80.022;2023-05-09T12:19:33;97154.43;;;19.60;39.23
74334;BME280;62753;40.394;-80.022;2023-05-09T12:21:57;97162.59;;;19.37;38.98
74334;BME280;62753;40.394;-80.022;2023-05-09T12:24:22;97157.73;;;19.46;40.37
74334;BME280;62753;40.394;-80.022;2023-05-09T12:26:48;97153.47;;;19.15;39.74
74334;BME280;62753;40.394;-80.022;2023-05-09T12:29:14;97144.27;;;19.58;39.01
74334;BME280;62753;40.394;-80.022;2023-05-09T12:31:40;97135.44;;;19.27;39.83
74334;BME280;62753;40.394;-80.022;2023-05-09T12:34:05;97127.39;;;19.02;39.27
74334;BME280;62753;40.394;-80.022;2023-05-09T12:36:33;97129.61;;;18.87;40.38
74334;BME280;62753;40.394;-80.022;2023-05-09T12:38:55;97133.84;;;18.31;39.57